THY3PN URSS-LTBJ
Flight info
| Callsign | THY3PN |
|---|---|
| Flight time | N/A |
| Altitude | 34000 |
| Route | LAMET1D LAMET DCT SOVAP DCT EKSUK DCT ASTAL DCT PETAR DCT ERVAG DCT BAKPI DCT NESET DCT KULAR KULA1E |
| Aircraft | A321/M-SDE3FGHIRWY/LB1 |
Departure
| Time | 2026-05-06 18:42 |
|---|---|
| Airport | Sochi International Airport (URSS) |
Arrival
| Time | N/A |
|---|---|
| Airport | Adnan Menderes International Airport (LTBJ) |
| Time | Latitude | Longitude | Altitude | Speed | Heading |
|---|---|---|---|---|---|
| 2026-05-06 18:22 | 43.44854 | 39.94496 | 53 ft | 0 kts | 334° |
| 2026-05-06 18:30 | 43.44850 | 39.94498 | 53 ft | 2 kts | 334° |
| 2026-05-06 18:30 | 43.44836 | 39.94507 | 52 ft | 2 kts | 334° |
| 2026-05-06 18:30 | 43.44823 | 39.94517 | 52 ft | 2 kts | 334° |
| 2026-05-06 18:31 | 43.44809 | 39.94526 | 52 ft | 2 kts | 333° |
| 2026-05-06 18:31 | 43.44796 | 39.94528 | 52 ft | 2 kts | 25° |
| 2026-05-06 18:31 | 43.44787 | 39.94518 | 52 ft | 0 kts | 61° |
| 2026-05-06 18:31 | 43.44784 | 39.94510 | 52 ft | 1 kts | 66° |
| 2026-05-06 18:32 | 43.44783 | 39.94508 | 52 ft | 0 kts | 65° |
| 2026-05-06 18:34 | 43.44803 | 39.94565 | 51 ft | 7 kts | 66° |
| 2026-05-06 18:34 | 43.44816 | 39.94601 | 50 ft | 5 kts | 64° |
| 2026-05-06 18:34 | 43.44830 | 39.94641 | 50 ft | 4 kts | 65° |
| 2026-05-06 18:35 | 43.44845 | 39.94689 | 51 ft | 5 kts | 65° |
| 2026-05-06 18:35 | 43.44862 | 39.94737 | 52 ft | 5 kts | 62° |
| 2026-05-06 18:35 | 43.44878 | 39.94780 | 53 ft | 4 kts | 65° |
| 2026-05-06 18:35 | 43.44893 | 39.94823 | 53 ft | 5 kts | 64° |
| 2026-05-06 18:36 | 43.44903 | 39.94851 | 53 ft | 0 kts | 63° |
| 2026-05-06 18:36 | 43.44904 | 39.94855 | 54 ft | 0 kts | 64° |
| 2026-05-06 18:37 | 43.44917 | 39.94890 | 54 ft | 13 kts | 66° |
| 2026-05-06 18:38 | 43.44946 | 39.94978 | 53 ft | 9 kts | 64° |
| 2026-05-06 18:38 | 43.44961 | 39.95025 | 54 ft | 3 kts | 80° |
| 2026-05-06 18:38 | 43.44957 | 39.95054 | 55 ft | 2 kts | 109° |
| 2026-05-06 18:38 | 43.44951 | 39.95073 | 55 ft | 4 kts | 110° |
| 2026-05-06 18:39 | 43.44945 | 39.95126 | 58 ft | 3 kts | 84° |
| 2026-05-06 18:39 | 43.44952 | 39.95154 | 60 ft | 3 kts | 63° |
| 2026-05-06 18:39 | 43.44979 | 39.95228 | 64 ft | 6 kts | 65° |
| 2026-05-06 18:40 | 43.44995 | 39.95296 | 68 ft | 3 kts | 101° |
| 2026-05-06 18:40 | 43.44989 | 39.95316 | 69 ft | 1 kts | 117° |
| 2026-05-06 18:40 | 43.44975 | 39.95339 | 70 ft | 4 kts | 146° |
| 2026-05-06 18:40 | 43.44941 | 39.95362 | 70 ft | 4 kts | 153° |
| 2026-05-06 18:41 | 43.44913 | 39.95363 | 70 ft | 4 kts | 206° |
| 2026-05-06 18:41 | 43.44890 | 39.95335 | 68 ft | 4 kts | 238° |
| 2026-05-06 18:41 | 43.44884 | 39.95319 | 68 ft | 0 kts | 244° |
| 2026-05-06 18:42 | 43.44854 | 39.95231 | 65 ft | 39 kts | 244° |
| 2026-05-06 18:42 | 43.44625 | 39.94562 | 51 ft | 111 kts | 245° |
| 2026-05-06 18:42 | 43.44206 | 39.93333 | 51 ft | 167 kts | 244° |
| 2026-05-06 18:42 | 43.43759 | 39.91985 | 886 ft | 148 kts | 247° |
| 2026-05-06 18:43 | 43.43417 | 39.90604 | 1335 ft | 159 kts | 256° |
| 2026-05-06 18:43 | 43.43212 | 39.89091 | 1710 ft | 167 kts | 261° |
| 2026-05-06 18:43 | 43.42971 | 39.87463 | 1974 ft | 179 kts | 258° |
| 2026-05-06 18:43 | 43.42692 | 39.85740 | 2238 ft | 192 kts | 257° |
| 2026-05-06 18:44 | 43.42384 | 39.83881 | 2515 ft | 205 kts | 257° |
| 2026-05-06 18:44 | 43.42054 | 39.81912 | 2780 ft | 221 kts | 257° |
| 2026-05-06 18:44 | 43.41687 | 39.79739 | 3048 ft | 240 kts | 257° |
| 2026-05-06 18:44 | 43.41299 | 39.77448 | 3388 ft | 257 kts | 257° |
| 2026-05-06 18:45 | 43.40881 | 39.74996 | 3931 ft | 267 kts | 257° |
| 2026-05-06 18:45 | 43.40458 | 39.72517 | 4570 ft | 269 kts | 257° |
| 2026-05-06 18:45 | 43.40029 | 39.70016 | 4914 ft | 270 kts | 258° |
| 2026-05-06 18:45 | 43.39599 | 39.67494 | 4985 ft | 270 kts | 258° |
| 2026-05-06 18:46 | 43.39173 | 39.65007 | 4990 ft | 270 kts | 257° |
| 2026-05-06 18:46 | 43.38792 | 39.62463 | 4993 ft | 270 kts | 262° |
| 2026-05-06 18:46 | 43.38564 | 39.59922 | 4991 ft | 270 kts | 265° |
| 2026-05-06 18:46 | 43.38383 | 39.57315 | 5219 ft | 276 kts | 265° |
| 2026-05-06 18:47 | 43.38208 | 39.54724 | 6019 ft | 277 kts | 266° |
| 2026-05-06 18:47 | 43.38029 | 39.52081 | 6888 ft | 276 kts | 266° |
| 2026-05-06 18:47 | 43.37852 | 39.49492 | 7651 ft | 279 kts | 266° |
| 2026-05-06 18:47 | 43.37667 | 39.46815 | 8361 ft | 282 kts | 266° |
| 2026-05-06 18:48 | 43.37480 | 39.44122 | 9098 ft | 285 kts | 266° |
| 2026-05-06 18:48 | 43.37291 | 39.41414 | 9797 ft | 288 kts | 266° |
| 2026-05-06 18:48 | 43.37099 | 39.38666 | 10429 ft | 293 kts | 266° |
| 2026-05-06 18:48 | 43.36900 | 39.35809 | 10789 ft | 309 kts | 266° |
| 2026-05-06 18:49 | 43.36689 | 39.32792 | 11119 ft | 325 kts | 265° |
| 2026-05-06 18:49 | 43.36468 | 39.29679 | 11658 ft | 332 kts | 265° |
| 2026-05-06 18:49 | 43.36245 | 39.26560 | 12293 ft | 335 kts | 265° |
| 2026-05-06 18:49 | 43.36016 | 39.23379 | 12939 ft | 338 kts | 265° |
| 2026-05-06 18:50 | 43.35783 | 39.20147 | 13571 ft | 341 kts | 265° |
| 2026-05-06 18:50 | 43.35548 | 39.16896 | 14178 ft | 344 kts | 265° |
| 2026-05-06 18:50 | 43.35312 | 39.13635 | 14780 ft | 347 kts | 265° |